Pagrindinis puslapis
METAR-TAF:

METAR-TAF

Oro uostai :

Florø, Norvegija

platuma: 61-35N, ilguma: 005-02E, Aukštis: 0 m

Dabartinis oras

Ataskaita buvo paskelbta 51 minutes, ne 12:50 UTC
Vėjas 8 kt iš Vakarų/Pietvakarių
Temperatūra 16°C
Drėgmė 59%
Slėgis 1029 hPa
Matomumas 10 km arba daugiau
nėra debesų žemiau 1500 m ir nėra kamuolinių lietaus debesų

METAR: ENFL 011250Z 25008KT CAVOK 16/08 Q1029

Laikas: 15:41 (13:41 UTC)

Prognozė

Ataskaita buvo paskelbta 2 valandos ir 41 minutes, ne 11:00 UTC
Prognozė galioja nuo 01 metu 12 UTC su 01 metu 21 UTC
Vėjas 8 kt iš Vakarų/Pietvakarių
Matomumas 10 km arba daugiau
nėra debesų žemiau 1500 m ir nėra kamuolinių lietaus debesų

TAF: ENFL 011100Z 0112/0121 25008KT CAVOK

Orai ataskaitas ir orų prognozės (METAR, TAF).

turimą stotys yra geltonos ir raudonos taškus žemėlapyje.

Perkelti pele per norėdami pamatyti stoties vardą.

Tada spustelėkite, norėdami matyti oro stebėjimo ir prognozės.

Norėdami pakeisti žemėlapį: spustelėkite ant žalios mygtukų su juodo kryžiaus žemyn,; žalią mygtuką su brūkšneliu, jei norite nutolinti; arba žalių rodyklių gretimoms žemėlapius.


METAR-TAF: